Time;durP1;ratioP1;P1;durP2;ratioP2;P2;SDS_P1;SDS_P2;PMS_P1;PMS_P2;Temp;Humidity;BMP_temperature;BMP_pressure;BME280_temperature;BME280_humidity;BME280_pressure;Samples;Min_cycle;Max_cycle;Signal;HPM_P1;HPM_P2
2023/03/06 00:02:02;;;;;;;13.33;3.40;;;;;;;;;;5006959;28;20316;-60
2023/03/06 00:04:28;;;;;;;13.43;3.47;;;;;;;;;;5006134;28;20289;-60
2023/03/06 00:06:54;;;;;;;8.60;3.27;;;;;;;;;;5007293;28;20650;-60
2023/03/06 00:09:20;;;;;;;13.17;3.87;;;;;;;;;;5012802;28;20311;-60
2023/03/06 00:11:46;;;;;;;10.80;3.77;;;;;;;;;;5026119;28;20364;-60
2023/03/06 00:14:12;;;;;;;11.63;5.00;;;;;;;;;;5026257;28;20306;-60
2023/03/06 00:16:38;;;;;;;8.43;3.43;;;;;;;;;;5094899;28;20717;-60
2023/03/06 00:19:04;;;;;;;12.27;3.27;;;;;;;;;;5026926;28;20673;-60
2023/03/06 00:21:30;;;;;;;6.67;3.27;;;;;;;;;;5026261;28;20363;-60
2023/03/06 00:23:56;;;;;;;7.23;3.47;;;;;;;;;;5026755;28;20299;-60
2023/03/06 00:26:22;;;;;;;9.20;3.47;;;;;;;;;;5026650;28;20285;-60
2023/03/06 00:28:48;;;;;;;12.30;4.20;;;;;;;;;;5026418;28;20284;-60
2023/03/06 00:31:14;;;;;;;10.37;4.10;;;;;;;;;;5026407;28;20347;-60
2023/03/06 00:33:42;;;;;;;14.37;4.50;;;;;;;;;;5024489;28;20315;-60
2023/03/06 00:36:08;;;;;;;12.57;4.57;;;;;;;;;;5026486;28;20291;-60
2023/03/06 00:38:36;;;;;;;14.33;4.50;;;;;;;;;;5026256;28;20321;-60
2023/03/06 00:41:11;;;;;;;11.27;3.90;;;;;;;;;;5026632;28;20413;-60
2023/03/06 00:43:37;;;;;;;10.87;4.47;;;;;;;;;;5025587;28;21049;-60
2023/03/06 00:46:04;;;;;;;12.17;4.40;;;;;;;;;;5024398;28;20292;-60
2023/03/06 00:48:30;;;;;;;19.77;5.13;;;;;;;;;;5008761;28;20046;-60
2023/03/06 00:50:56;;;;;;;16.73;4.13;;;;;;;;;;5006417;28;20321;-60
2023/03/06 00:53:22;;;;;;;11.37;4.90;;;;;;;;;;5006136;28;20658;-59
2023/03/06 00:55:49;;;;;;;12.00;4.97;;;;;;;;;;5015203;28;20045;-60
2023/03/06 00:58:15;;;;;;;14.07;5.50;;;;;;;;;;5026465;28;20546;-60
2023/03/06 01:00:41;;;;;;;14.47;6.63;;;;;;;;;;5026337;28;20460;-60
2023/03/06 01:03:07;;;;;;;11.57;6.50;;;;;;;;;;5026275;28;20442;-60
2023/03/06 01:05:34;;;;;;;14.93;7.30;;;;;;;;;;5018656;28;20037;-59
2023/03/06 01:08:00;;;;;;;20.80;7.47;;;;;;;;;;5005656;28;20323;-60
2023/03/06 01:10:26;;;;;;;15.23;8.13;;;;;;;;;;5006107;28;20304;-60
2023/03/06 01:12:53;;;;;;;18.57;8.33;;;;;;;;;;5006218;28;20297;-60
2023/03/06 01:15:19;;;;;;;19.20;8.07;;;;;;;;;;5006138;28;21687;-60
2023/03/06 01:17:45;;;;;;;17.80;8.07;;;;;;;;;;5018795;28;20637;-60
2023/03/06 01:20:15;;;;;;;16.33;8.27;;;;;;;;;;5007379;28;20348;-60
2023/03/06 01:22:41;;;;;;;18.40;8.27;;;;;;;;;;5017061;28;20317;-60
2023/03/06 01:25:08;;;;;;;19.00;8.80;;;;;;;;;;5025673;28;20823;-60
2023/03/06 01:27:34;;;;;;;16.63;8.23;;;;;;;;;;5024801;28;20395;-60
2023/03/06 01:30:01;;;;;;;16.37;9.03;;;;;;;;;;5025253;28;20297;-59
2023/03/06 01:32:27;;;;;;;19.87;9.57;;;;;;;;;;5025647;28;20344;-60
2023/03/06 01:34:53;;;;;;;15.20;9.13;;;;;;;;;;5018593;28;20313;-60
2023/03/06 01:37:19;;;;;;;18.10;10.00;;;;;;;;;;5005900;28;20289;-60
2023/03/06 01:39:45;;;;;;;16.57;9.27;;;;;;;;;;5006409;28;20292;-59
2023/03/06 01:42:11;;;;;;;21.77;9.67;;;;;;;;;;5005935;28;20300;-60
2023/03/06 01:44:37;;;;;;;18.83;10.20;;;;;;;;;;5008289;28;20826;-60
2023/03/06 01:47:03;;;;;;;20.93;10.40;;;;;;;;;;5026124;28;20620;-60
2023/03/06 01:49:29;;;;;;;21.73;11.30;;;;;;;;;;5025303;28;20317;-60
2023/03/06 01:51:58;;;;;;;18.77;10.30;;;;;;;;;;5025476;28;20316;-60
2023/03/06 01:54:24;;;;;;;21.07;11.57;;;;;;;;;;5025052;28;20295;-60
2023/03/06 01:56:52;;;;;;;20.03;9.97;;;;;;;;;;5024547;28;20312;-60
2023/03/06 01:59:18;;;;;;;20.87;10.47;;;;;;;;;;5010825;28;20309;-60
2023/03/06 02:01:44;;;;;;;20.57;10.80;;;;;;;;;;5009447;28;20345;-60
2023/03/06 02:04:10;;;;;;;26.70;11.93;;;;;;;;;;5009388;28;20331;-60
2023/03/06 02:06:38;;;;;;;24.00;13.33;;;;;;;;;;5008906;28;20319;-60
2023/03/06 02:09:04;;;;;;;21.03;11.27;;;;;;;;;;5008653;28;20049;-60
2023/03/06 02:11:30;;;;;;;21.37;11.40;;;;;;;;;;5009086;28;20906;-59
2023/03/06 02:13:56;;;;;;;20.50;11.53;;;;;;;;;;5008922;28;20340;-60
2023/03/06 02:16:27;;;;;;;22.00;12.43;;;;;;;;;;5009249;28;20292;-60
2023/03/06 02:18:53;;;;;;;17.47;11.17;;;;;;;;;;5008826;28;20293;-60
2023/03/06 02:21:27;;;;;;;20.77;11.33;;;;;;;;;;5010674;28;20328;-60
2023/03/06 02:24:01;;;;;;;17.33;10.50;;;;;;;;;;5012050;28;20304;-59
2023/03/06 02:26:28;;;;;;;22.40;11.50;;;;;;;;;;5009197;28;20289;-60
2023/03/06 02:28:56;;;;;;;19.97;11.53;;;;;;;;;;5008917;28;20499;-60
2023/03/06 02:31:26;;;;;;;18.77;10.30;;;;;;;;;;5008627;28;20317;-60
2023/03/06 02:34:05;;;;;;;18.00;12.17;;;;;;;;;;5013524;28;20342;-60
2023/03/06 02:36:32;;;;;;;15.33;10.13;;;;;;;;;;5028099;28;20292;-60
2023/03/06 02:38:59;;;;;;;19.27;9.93;;;;;;;;;;5026899;28;20531;-60
2023/03/06 02:41:25;;;;;;;18.97;10.10;;;;;;;;;;5027900;28;20288;-60
2023/03/06 02:43:51;;;;;;;19.43;9.73;;;;;;;;;;5027835;28;20304;-60
2023/03/06 02:46:17;;;;;;;17.00;10.47;;;;;;;;;;5028208;28;20288;-60
2023/03/06 02:48:43;;;;;;;15.87;9.87;;;;;;;;;;5028467;28;20292;-60
2023/03/06 02:51:09;;;;;;;25.10;12.03;;;;;;;;;;5028537;28;20399;-60
2023/03/06 02:53:35;;;;;;;15.50;9.90;;;;;;;;;;5015038;28;20316;-59
2023/03/06 02:56:02;;;;;;;18.90;10.53;;;;;;;;;;5024654;28;20080;-60
2023/03/06 02:58:28;;;;;;;14.73;9.93;;;;;;;;;;5028162;28;20435;-60
2023/03/06 03:00:54;;;;;;;25.13;10.43;;;;;;;;;;5028724;28;20511;-60
2023/03/06 03:03:20;;;;;;;16.83;10.27;;;;;;;;;;5022498;28;20714;-60
2023/03/06 03:05:46;;;;;;;24.40;11.33;;;;;;;;;;5008655;28;20057;-60
2023/03/06 03:08:12;;;;;;;20.83;11.53;;;;;;;;;;5007492;28;20061;-60
2023/03/06 03:10:38;;;;;;;21.87;12.63;;;;;;;;;;5023375;28;20412;-60
2023/03/06 03:13:04;;;;;;;26.63;13.33;;;;;;;;;;5027185;28;20453;-60
2023/03/06 03:15:30;;;;;;;27.33;14.33;;;;;;;;;;5027536;28;20280;-60
2023/03/06 03:17:56;;;;;;;28.57;16.40;;;;;;;;;;5027533;28;20098;-61
2023/03/06 03:20:22;;;;;;;28.77;15.37;;;;;;;;;;5027092;28;20519;-62
2023/03/06 03:22:49;;;;;;;25.90;14.53;;;;;;;;;;5028015;28;20052;-62
2023/03/06 03:25:15;;;;;;;32.60;17.10;;;;;;;;;;5080007;28;20084;-62
2023/03/06 03:27:41;;;;;;;28.97;15.83;;;;;;;;;;5007850;28;20054;-62
2023/03/06 03:30:08;;;;;;;38.43;18.13;;;;;;;;;;5019042;28;20053;-62
2023/03/06 03:32:34;;;;;;;33.93;16.20;;;;;;;;;;5027397;28;20057;-62
2023/03/06 03:35:00;;;;;;;39.63;18.33;;;;;;;;;;5027513;28;20109;-62
2023/03/06 03:37:26;;;;;;;32.47;17.10;;;;;;;;;;5027571;28;20284;-63
2023/03/06 03:39:52;;;;;;;27.50;15.50;;;;;;;;;;5016687;28;20045;-63
2023/03/06 03:42:18;;;;;;;38.90;18.00;;;;;;;;;;5007002;28;20289;-63
2023/03/06 03:44:44;;;;;;;41.90;16.53;;;;;;;;;;5007331;28;20377;-63
2023/03/06 03:47:10;;;;;;;37.13;16.17;;;;;;;;;;5007485;28;20421;-63
2023/03/06 03:49:36;;;;;;;34.93;16.50;;;;;;;;;;5006612;28;20122;-63
2023/03/06 03:52:02;;;;;;;27.10;13.27;;;;;;;;;;5007141;28;20820;-64
2023/03/06 03:54:28;;;;;;;18.07;9.03;;;;;;;;;;5007366;28;20480;-63
2023/03/06 03:56:54;;;;;;;15.23;8.10;;;;;;;;;;5075341;28;20289;-63
2023/03/06 03:59:20;;;;;;;13.60;7.03;;;;;;;;;;5006981;28;20042;-64
2023/03/06 04:01:47;;;;;;;14.43;6.80;;;;;;;;;;5007088;28;20065;-64
2023/03/06 04:04:13;;;;;;;11.30;6.60;;;;;;;;;;5007347;28;20095;-63
2023/03/06 04:06:39;;;;;;;12.70;6.07;;;;;;;;;;5006943;28;20049;-64
2023/03/06 04:09:05;;;;;;;14.50;6.00;;;;;;;;;;5013076;28;20057;-63
2023/03/06 04:11:31;;;;;;;17.57;7.13;;;;;;;;;;5026680;28;20038;-63
2023/03/06 04:13:57;;;;;;;14.43;6.43;;;;;;;;;;5027130;28;20060;-63
2023/03/06 04:16:23;;;;;;;14.33;6.10;;;;;;;;;;5026317;28;20045;-63
2023/03/06 04:18:49;;;;;;;9.57;5.50;;;;;;;;;;5025818;28;20052;-63
2023/03/06 04:21:15;;;;;;;7.57;3.43;;;;;;;;;;5026806;27;20473;-64
2023/03/06 04:23:41;;;;;;;9.87;3.80;;;;;;;;;;5025697;28;20280;-63
2023/03/06 04:26:07;;;;;;;5.30;3.00;;;;;;;;;;5025671;28;20064;-63
2023/03/06 04:28:33;;;;;;;7.30;3.40;;;;;;;;;;5025560;28;20041;-63
2023/03/06 04:31:00;;;;;;;8.03;3.10;;;;;;;;;;5026575;28;20672;-63
2023/03/06 04:33:26;;;;;;;5.50;3.33;;;;;;;;;;5026347;28;20136;-63
2023/03/06 04:35:52;;;;;;;6.43;3.03;;;;;;;;;;5026891;28;20053;-63
2023/03/06 04:38:18;;;;;;;8.70;2.63;;;;;;;;;;5026716;28;20052;-63
2023/03/06 04:40:44;;;;;;;4.17;2.40;;;;;;;;;;5026097;28;20128;-63
2023/03/06 04:43:10;;;;;;;9.13;2.77;;;;;;;;;;5026241;28;20071;-63
2023/03/06 04:45:36;;;;;;;7.13;2.40;;;;;;;;;;5026452;28;20049;-63
2023/03/06 04:48:02;;;;;;;4.53;2.10;;;;;;;;;;5026504;28;20691;-63
2023/03/06 04:50:31;;;;;;;7.47;2.83;;;;;;;;;;5025451;28;20106;-63
2023/03/06 04:52:58;;;;;;;4.33;2.17;;;;;;;;;;5026493;28;20053;-63
2023/03/06 04:55:24;;;;;;;4.53;2.47;;;;;;;;;;5026298;28;20045;-63
2023/03/06 04:57:50;;;;;;;6.20;2.87;;;;;;;;;;5025980;28;20299;-63
2023/03/06 05:00:18;;;;;;;6.47;2.47;;;;;;;;;;5025559;28;20311;-63
2023/03/06 05:02:44;;;;;;;6.30;2.90;;;;;;;;;;5026864;28;20053;-63
2023/03/06 05:05:11;;;;;;;9.10;3.30;;;;;;;;;;5025799;28;20630;-63
2023/03/06 05:07:38;;;;;;;10.73;3.20;;;;;;;;;;5026083;28;20042;-63
2023/03/06 05:10:05;;;;;;;7.13;2.77;;;;;;;;;;5025567;28;20049;-63
2023/03/06 05:12:31;;;;;;;8.57;3.20;;;;;;;;;;5024311;28;20092;-63
2023/03/06 05:14:57;;;;;;;7.20;2.70;;;;;;;;;;5006681;28;20142;-63
2023/03/06 05:17:23;;;;;;;10.77;2.77;;;;;;;;;;5006211;28;20042;-63
2023/03/06 05:19:49;;;;;;;6.90;2.93;;;;;;;;;;5006646;28;20061;-63
2023/03/06 05:22:15;;;;;;;9.43;3.43;;;;;;;;;;5009026;28;20042;-63
2023/03/06 05:24:41;;;;;;;8.70;3.27;;;;;;;;;;5074217;28;20416;-63
2023/03/06 05:27:07;;;;;;;12.63;4.13;;;;;;;;;;5006559;28;20050;-63
2023/03/06 05:29:33;;;;;;;9.67;3.20;;;;;;;;;;5005778;28;20285;-63
2023/03/06 05:31:59;;;;;;;7.37;2.93;;;;;;;;;;5012126;28;20057;-63
2023/03/06 05:34:25;;;;;;;8.90;4.00;;;;;;;;;;5016305;28;20098;-63
2023/03/06 05:36:51;;;;;;;7.23;3.87;;;;;;;;;;5009756;28;20065;-63
2023/03/06 05:39:18;;;;;;;8.47;3.73;;;;;;;;;;5009148;28;20054;-62
2023/03/06 05:41:44;;;;;;;9.77;4.40;;;;;;;;;;5009593;28;20505;-63
2023/03/06 05:44:10;;;;;;;9.47;4.13;;;;;;;;;;5009383;28;20042;-63
2023/03/06 05:46:36;;;;;;;9.73;4.10;;;;;;;;;;5014113;28;20121;-63
2023/03/06 05:49:03;;;;;;;11.03;4.47;;;;;;;;;;5018977;28;20045;-63
2023/03/06 05:51:29;;;;;;;8.37;3.83;;;;;;;;;;5017231;28;20508;-63
2023/03/06 05:53:55;;;;;;;5.90;2.50;;;;;;;;;;5028156;28;20316;-63
2023/03/06 05:56:21;;;;;;;6.03;2.60;;;;;;;;;;5028737;28;20098;-63
2023/03/06 05:58:47;;;;;;;6.80;3.03;;;;;;;;;;5026122;28;20053;-63
2023/03/06 06:01:15;;;;;;;5.70;2.43;;;;;;;;;;5027172;28;20064;-63
2023/03/06 06:03:41;;;;;;;6.00;2.50;;;;;;;;;;5023567;28;20349;-63
2023/03/06 06:06:08;;;;;;;5.03;2.30;;;;;;;;;;5024093;28;20323;-63
2023/03/06 06:08:35;;;;;;;5.17;2.43;;;;;;;;;;5018380;28;20378;-62
2023/03/06 06:11:01;;;;;;;7.80;2.90;;;;;;;;;;5007275;28;20860;-63
2023/03/06 06:13:27;;;;;;;6.07;2.60;;;;;;;;;;5016928;28;20640;-63
2023/03/06 06:15:53;;;;;;;6.03;2.00;;;;;;;;;;5018228;28;20479;-62
2023/03/06 06:18:19;;;;;;;7.87;2.30;;;;;;;;;;5017055;28;20046;-63
2023/03/06 06:20:45;;;;;;;7.67;2.20;;;;;;;;;;5017230;28;20324;-63
2023/03/06 06:23:11;;;;;;;4.83;2.03;;;;;;;;;;5016898;28;20696;-63
2023/03/06 06:25:37;;;;;;;8.73;2.53;;;;;;;;;;5027707;28;20064;-62
2023/03/06 06:28:04;;;;;;;15.43;2.90;;;;;;;;;;5022065;28;20668;-62
2023/03/06 06:30:30;;;;;;;6.80;2.80;;;;;;;;;;5023889;28;20603;-63
2023/03/06 06:32:57;;;;;;;7.60;2.37;;;;;;;;;;5026806;28;20296;-62
2023/03/06 06:35:23;;;;;;;6.63;2.60;;;;;;;;;;5026265;28;20300;-63
2023/03/06 06:37:49;;;;;;;7.90;2.80;;;;;;;;;;5026991;28;20331;-63
2023/03/06 06:40:15;;;;;;;8.20;3.07;;;;;;;;;;5027888;28;20288;-62
2023/03/06 06:42:41;;;;;;;7.33;2.80;;;;;;;;;;5026908;28;20285;-62
2023/03/06 06:45:09;;;;;;;7.77;2.67;;;;;;;;;;5026604;28;20300;-62
2023/03/06 06:47:39;;;;;;;7.53;2.93;;;;;;;;;;5026100;28;20426;-61
2023/03/06 06:50:06;;;;;;;10.57;3.13;;;;;;;;;;5024626;28;20796;-62
2023/03/06 06:52:32;;;;;;;6.13;2.47;;;;;;;;;;5017403;28;20317;-62
2023/03/06 06:54:58;;;;;;;11.37;3.97;;;;;;;;;;5015510;28;20344;-62
2023/03/06 06:57:24;;;;;;;11.60;4.27;;;;;;;;;;5016600;28;20281;-62
2023/03/06 06:59:50;;;;;;;6.87;3.60;;;;;;;;;;5015820;28;20285;-62
2023/03/06 07:02:16;;;;;;;9.07;3.77;;;;;;;;;;5014997;28;20300;-61
2023/03/06 07:04:43;;;;;;;12.23;4.07;;;;;;;;;;5016593;28;20375;-61
2023/03/06 07:07:09;;;;;;;7.93;3.80;;;;;;;;;;5015598;28;20324;-61
2023/03/06 07:09:37;;;;;;;26.33;4.77;;;;;;;;;;5016009;28;20570;-61
2023/03/06 07:12:03;;;;;;;12.23;3.70;;;;;;;;;;5014570;28;20827;-61
2023/03/06 07:14:29;;;;;;;9.40;3.90;;;;;;;;;;5015430;28;20779;-61
2023/03/06 07:16:55;;;;;;;35.37;6.27;;;;;;;;;;5015028;28;20312;-61
2023/03/06 07:19:21;;;;;;;13.73;4.10;;;;;;;;;;5025957;28;20296;-61
2023/03/06 07:21:47;;;;;;;19.03;5.50;;;;;;;;;;5012318;28;20315;-61
2023/03/06 07:24:13;;;;;;;12.33;4.73;;;;;;;;;;5010763;28;20385;-61
2023/03/06 07:26:39;;;;;;;12.23;4.73;;;;;;;;;;5007649;28;20297;-62
2023/03/06 07:29:05;;;;;;;10.77;4.60;;;;;;;;;;5012032;28;20301;-61
2023/03/06 07:31:33;;;;;;;12.57;5.00;;;;;;;;;;5019067;28;20312;-63
2023/03/06 07:33:59;;;;;;;10.77;4.37;;;;;;;;;;5017613;28;20423;-64
2023/03/06 07:36:25;;;;;;;14.17;4.30;;;;;;;;;;5015327;28;20344;-63
2023/03/06 07:38:51;;;;;;;7.10;3.53;;;;;;;;;;5016474;28;20285;-64
2023/03/06 07:41:17;;;;;;;10.73;4.60;;;;;;;;;;5021590;28;20798;-61
2023/03/06 07:43:44;;;;;;;9.93;4.10;;;;;;;;;;5013140;28;20295;-62
2023/03/06 07:46:11;;;;;;;10.60;4.43;;;;;;;;;;5017877;28;20291;-62
2023/03/06 07:48:38;;;;;;;9.70;4.03;;;;;;;;;;5016511;28;20307;-64
2023/03/06 07:51:06;;;;;;;7.70;3.20;;;;;;;;;;5015066;28;20304;-62
2023/03/06 07:53:32;;;;;;;11.97;5.47;;;;;;;;;;5017994;28;20282;-62
2023/03/06 07:55:58;;;;;;;38.80;6.63;;;;;;;;;;5004629;28;20285;-62
2023/03/06 07:58:25;;;;;;;12.47;5.33;;;;;;;;;;5004567;28;20289;-64
2023/03/06 08:00:51;;;;;;;14.57;5.53;;;;;;;;;;5005348;28;20323;-62
2023/03/06 08:03:17;;;;;;;9.83;4.70;;;;;;;;;;5006417;28;20281;-62
2023/03/06 08:05:43;;;;;;;9.07;4.20;;;;;;;;;;5007011;28;20408;-62
2023/03/06 08:08:09;;;;;;;8.93;3.43;;;;;;;;;;5006555;28;20123;-62
2023/03/06 08:10:36;;;;;;;8.37;3.43;;;;;;;;;;5006351;28;20057;-62
2023/03/06 08:13:02;;;;;;;8.57;3.03;;;;;;;;;;5005899;28;20053;-62
2023/03/06 08:15:28;;;;;;;6.77;3.20;;;;;;;;;;5015005;28;20285;-62
2023/03/06 08:17:54;;;;;;;6.80;2.90;;;;;;;;;;5016804;28;20109;-62
2023/03/06 08:20:20;;;;;;;6.67;3.20;;;;;;;;;;5006054;28;20064;-63
2023/03/06 08:22:47;;;;;;;6.27;3.43;;;;;;;;;;5016740;28;20099;-62
2023/03/06 08:25:14;;;;;;;7.33;3.13;;;;;;;;;;5007066;28;20060;-65
2023/03/06 08:27:40;;;;;;;5.17;2.73;;;;;;;;;;5007014;28;20344;-63
2023/03/06 08:30:06;;;;;;;6.43;2.80;;;;;;;;;;5006331;28;20107;-63
2023/03/06 08:32:35;;;;;;;4.70;2.77;;;;;;;;;;5074150;28;20118;-64
2023/03/06 08:35:02;;;;;;;5.67;2.73;;;;;;;;;;5007258;28;20061;-63
2023/03/06 08:37:28;;;;;;;8.13;3.50;;;;;;;;;;5008585;28;20568;-63
2023/03/06 08:39:54;;;;;;;7.20;3.07;;;;;;;;;;5006916;28;20379;-63
2023/03/06 08:42:20;;;;;;;6.23;2.83;;;;;;;;;;5006526;28;20215;-64
2023/03/06 08:44:46;;;;;;;4.53;3.10;;;;;;;;;;5013976;28;20037;-63
2023/03/06 08:47:12;;;;;;;3.80;2.20;;;;;;;;;;5025807;28;20120;-63
2023/03/06 08:49:38;;;;;;;4.20;2.30;;;;;;;;;;5047074;27;20434;-63
2023/03/06 08:52:05;;;;;;;5.50;1.90;;;;;;;;;;5018130;28;20133;-63
2023/03/06 08:54:32;;;;;;;4.07;1.07;;;;;;;;;;5026606;28;20045;-63
2023/03/06 08:56:58;;;;;;;5.27;1.70;;;;;;;;;;5026471;28;20041;-63
2023/03/06 08:59:24;;;;;;;9.03;2.03;;;;;;;;;;5066716;27;20418;-63
2023/03/06 09:01:50;;;;;;;3.87;1.77;;;;;;;;;;5129606;27;20529;-63
2023/03/06 09:04:16;;;;;;;4.70;2.33;;;;;;;;;;5048013;27;20127;-63
2023/03/06 09:06:44;;;;;;;5.03;2.10;;;;;;;;;;5015455;28;20041;-63
2023/03/06 09:09:10;;;;;;;5.57;1.80;;;;;;;;;;5014100;28;20038;-63
2023/03/06 09:11:36;;;;;;;5.80;2.33;;;;;;;;;;5014779;28;20496;-63
2023/03/06 09:14:02;;;;;;;6.03;2.90;;;;;;;;;;5009215;28;20065;-63
2023/03/06 09:16:28;;;;;;;5.43;2.20;;;;;;;;;;5012095;28;20045;-63
2023/03/06 09:18:54;;;;;;;5.23;1.80;;;;;;;;;;5026283;28;20069;-63
2023/03/06 09:21:21;;;;;;;5.77;1.80;;;;;;;;;;5012122;28;20042;-63
2023/03/06 09:23:47;;;;;;;4.63;1.47;;;;;;;;;;5012146;28;20045;-63
2023/03/06 09:26:13;;;;;;;5.57;1.90;;;;;;;;;;5088306;28;20046;-63
2023/03/06 09:28:40;;;;;;;1.97;1.10;;;;;;;;;;5017413;28;20046;-63
2023/03/06 09:31:10;;;;;;;2.87;1.00;;;;;;;;;;5014073;28;20049;-63
2023/03/06 09:33:36;;;;;;;5.73;1.70;;;;;;;;;;5013754;28;20057;-63
2023/03/06 09:36:02;;;;;;;5.93;1.00;;;;;;;;;;5017568;28;20046;-63
2023/03/06 09:38:28;;;;;;;3.37;0.80;;;;;;;;;;5014792;28;20052;-62
2023/03/06 09:40:59;;;;;;;6.20;0.97;;;;;;;;;;5007165;28;20446;-63
2023/03/06 09:43:29;;;;;;;1.43;0.70;;;;;;;;;;5004497;28;20065;-63
2023/03/06 09:45:56;;;;;;;1.93;0.90;;;;;;;;;;5004065;28;20293;-63
2023/03/06 09:48:27;;;;;;;3.83;1.00;;;;;;;;;;5004546;28;20053;-63
2023/03/06 09:51:01;;;;;;;3.47;1.00;;;;;;;;;;5004412;28;20050;-63
2023/03/06 09:53:36;;;;;;;4.67;0.60;;;;;;;;;;5072949;28;20094;-63
2023/03/06 09:56:05;;;;;;;2.23;0.90;;;;;;;;;;5073129;28;20405;-63
2023/03/06 09:58:36;;;;;;;1.50;0.60;;;;;;;;;;5005796;28;20046;-63
2023/03/06 10:01:02;;;;;;;1.17;0.53;;;;;;;;;;5005049;28;20083;-63
2023/03/06 10:03:28;;;;;;;4.97;0.87;;;;;;;;;;5005236;28;20568;-63
2023/03/06 10:06:16;;;;;;;6.50;0.70;;;;;;;;;;5008524;28;20052;-63
2023/03/06 10:08:50;;;;;;;3.10;0.60;;;;;;;;;;5014101;28;20413;-63
2023/03/06 10:11:19;;;;;;;4.93;0.60;;;;;;;;;;5005653;28;20050;-63
2023/03/06 10:13:47;;;;;;;4.40;0.70;;;;;;;;;;5012282;28;20511;-63
2023/03/06 10:16:25;;;;;;;3.43;0.77;;;;;;;;;;5009054;28;20090;-63
2023/03/06 10:18:52;;;;;;;7.10;1.00;;;;;;;;;;5016107;28;20113;-63
2023/03/06 10:21:18;;;;;;;4.23;1.07;;;;;;;;;;5019145;28;20049;-63
2023/03/06 10:24:07;;;;;;;3.40;0.60;;;;;;;;;;5021109;28;20050;-63
2023/03/06 10:26:45;;;;;;;3.33;1.27;;;;;;;;;;5018719;28;20041;-62
2023/03/06 10:29:11;;;;;;;4.67;0.87;;;;;;;;;;5018362;28;20045;-62
2023/03/06 10:31:38;;;;;;;2.13;0.53;;;;;;;;;;5015981;28;20053;-62
2023/03/06 10:34:18;;;;;;;3.80;1.70;;;;;;;;;;5015512;28;20524;-62
2023/03/06 10:36:44;;;;;;;3.43;0.97;;;;;;;;;;5008780;28;20049;-62
2023/03/06 10:39:15;;;;;;;6.50;0.70;;;;;;;;;;5008126;28;20061;-63
2023/03/06 10:41:41;;;;;;;2.27;0.60;;;;;;;;;;5008449;28;20506;-62
2023/03/06 10:44:08;;;;;;;3.70;0.90;;;;;;;;;;5008102;28;20037;-62
2023/03/06 10:46:41;;;;;;;2.33;0.63;;;;;;;;;;5008235;28;20061;-62
2023/03/06 10:49:22;;;;;;;3.42;0.75;;;;;;;;;;5007752;28;20057;-62
2023/03/06 10:51:56;;;;;;;3.17;0.63;;;;;;;;;;5008034;28;20064;-62
2023/03/06 10:54:22;;;;;;;5.33;0.60;;;;;;;;;;5007940;28;20106;-62
2023/03/06 10:56:48;;;;;;;3.87;0.70;;;;;;;;;;5008472;28;20052;-62
2023/03/06 10:59:15;;;;;;;1.80;0.60;;;;;;;;;;5007612;28;20042;-61
2023/03/06 11:01:45;;;;;;;2.13;0.40;;;;;;;;;;5012333;28;20424;-61
2023/03/06 11:04:14;;;;;;;4.57;0.70;;;;;;;;;;5018776;28;20057;-62
2023/03/06 11:06:40;;;;;;;1.73;0.53;;;;;;;;;;5014477;28;20041;-61
2023/03/06 11:09:21;;;;;;;1.50;0.70;;;;;;;;;;5017946;28;20041;-62
2023/03/06 11:11:47;;;;;;;4.33;0.67;;;;;;;;;;5016938;28;20045;-61
2023/03/06 11:14:17;;;;;;;3.40;0.50;;;;;;;;;;5012052;28;20049;-61
2023/03/06 11:16:51;;;;;;;2.20;0.60;;;;;;;;;;5017259;28;20038;-61
2023/03/06 11:19:25;;;;;;;1.97;0.73;;;;;;;;;;5021878;28;20054;-61
2023/03/06 11:22:16;;;;;;;3.90;0.70;;;;;;;;;;5013455;28;20037;-61
2023/03/06 11:24:45;;;;;;;1.47;0.60;;;;;;;;;;5012681;28;20033;-61
2023/03/06 11:27:24;;;;;;;3.57;0.70;;;;;;;;;;5014048;28;20054;-60
2023/03/06 11:29:51;;;;;;;4.57;1.10;;;;;;;;;;5016636;28;20512;-60
2023/03/06 11:32:17;;;;;;;4.77;0.53;;;;;;;;;;5008729;28;20058;-60
2023/03/06 11:34:47;;;;;;;4.93;0.67;;;;;;;;;;5010209;28;20046;-61
2023/03/06 11:37:23;;;;;;;4.83;0.50;;;;;;;;;;5021435;28;20057;-61
2023/03/06 11:39:50;;;;;;;4.50;0.93;;;;;;;;;;5020447;28;20052;-61
2023/03/06 11:42:16;;;;;;;2.53;0.80;;;;;;;;;;5012288;28;20050;-61
2023/03/06 11:44:58;;;;;;;4.27;0.70;;;;;;;;;;5006869;28;20199;-60
2023/03/06 11:47:43;;;;;;;3.53;0.70;;;;;;;;;;5025169;28;20041;-61
2023/03/06 11:50:15;;;;;;;2.33;0.70;;;;;;;;;;5025527;28;20102;-61
2023/03/06 11:52:50;;;;;;;4.87;1.40;;;;;;;;;;5024795;28;20049;-60
2023/03/06 11:55:23;;;;;;;3.20;0.67;;;;;;;;;;5025821;28;20090;-60
2023/03/06 11:58:12;;;;;;;1.87;0.67;;;;;;;;;;5026046;28;20506;-60
2023/03/06 12:00:38;;;;;;;6.17;0.90;;;;;;;;;;5008300;28;20048;-60
2023/03/06 12:03:23;;;;;;;2.70;0.80;;;;;;;;;;5006765;28;20488;-60
2023/03/06 12:06:04;;;;;;;3.67;0.67;;;;;;;;;;5024739;28;20057;-60
2023/03/06 12:08:42;;;;;;;3.23;0.80;;;;;;;;;;5017203;28;20090;-60
2023/03/06 12:11:15;;;;;;;1.93;0.70;;;;;;;;;;5085515;28;20054;-60
2023/03/06 12:13:43;;;;;;;2.57;0.73;;;;;;;;;;5026537;28;20089;-60
2023/03/06 12:16:28;;;;;;;5.57;1.07;;;;;;;;;;5025456;28;20290;-60
2023/03/06 12:19:13;;;;;;;4.40;0.87;;;;;;;;;;5009073;28;20063;-60
2023/03/06 12:21:58;;;;;;;5.10;1.00;;;;;;;;;;5010659;28;20058;-59
2023/03/06 12:24:48;;;;;;;2.03;0.80;;;;;;;;;;5019124;28;20394;-59
2023/03/06 12:27:14;;;;;;;1.87;0.80;;;;;;;;;;5017240;28;20054;-60
2023/03/06 12:30:03;;;;;;;3.37;0.90;;;;;;;;;;5006347;28;20103;-59
2023/03/06 12:32:44;;;;;;;3.33;1.00;;;;;;;;;;5006260;28;20570;-60
2023/03/06 12:35:28;;;;;;;5.73;1.03;;;;;;;;;;5007055;28;20053;-59
2023/03/06 12:38:00;;;;;;;2.13;0.80;;;;;;;;;;5008028;28;20132;-60
2023/03/06 12:40:42;;;;;;;2.73;0.70;;;;;;;;;;5006665;28;20483;-60
2023/03/06 12:43:20;;;;;;;4.27;0.80;;;;;;;;;;5006320;28;20132;-59
2023/03/06 12:45:48;;;;;;;3.47;0.90;;;;;;;;;;5006134;28;20049;-59
2023/03/06 12:48:20;;;;;;;4.47;1.00;;;;;;;;;;5005927;28;20124;-60
2023/03/06 12:50:46;;;;;;;2.27;0.67;;;;;;;;;;5006511;28;20098;-59
2023/03/06 12:53:26;;;;;;;4.23;0.83;;;;;;;;;;5006376;28;20041;-59
2023/03/06 12:55:52;;;;;;;4.30;0.90;;;;;;;;;;5005786;28;20712;-59
2023/03/06 12:58:28;;;;;;;3.30;1.10;;;;;;;;;;5006334;28;20081;-59
2023/03/06 13:00:56;;;;;;;3.50;0.80;;;;;;;;;;5006468;28;21122;-59
2023/03/06 13:03:26;;;;;;;2.97;0.80;;;;;;;;;;5006249;28;20046;-59
2023/03/06 13:05:59;;;;;;;1.63;0.50;;;;;;;;;;5006597;28;20049;-60
2023/03/06 13:08:31;;;;;;;3.35;1.35;;;;;;;;;;5005495;28;20038;-60
2023/03/06 13:11:20;;;;;;;2.33;0.63;;;;;;;;;;5013069;28;20053;-59
2023/03/06 13:13:47;;;;;;;4.97;1.00;;;;;;;;;;5014081;28;20262;-59
2023/03/06 13:16:21;;;;;;;2.50;0.70;;;;;;;;;;5005738;28;20050;-60
2023/03/06 13:18:49;;;;;;;2.70;1.27;;;;;;;;;;5005900;28;20046;-59
2023/03/06 13:21:34;;;;;;;2.03;0.70;;;;;;;;;;5005541;28;20076;-59
2023/03/06 13:24:13;;;;;;;0.97;0.40;;;;;;;;;;5005849;28;20046;-60
2023/03/06 13:26:39;;;;;;;2.23;0.50;;;;;;;;;;5005973;28;20502;-59
2023/03/06 13:29:25;;;;;;;1.30;0.50;;;;;;;;;;5005374;28;20046;-60
2023/03/06 13:31:51;;;;;;;2.97;0.60;;;;;;;;;;5005705;28;20510;-60
2023/03/06 13:34:35;;;;;;;1.07;0.43;;;;;;;;;;5005670;28;20520;-60
2023/03/06 13:37:13;;;;;;;1.02;0.50;;;;;;;;;;5005003;28;20053;-60
2023/03/06 13:39:54;;;;;;;1.27;0.43;;;;;;;;;;5010180;28;20049;-59
2023/03/06 13:42:28;;;;;;;3.03;0.70;;;;;;;;;;5013321;28;20165;-60
2023/03/06 13:44:55;;;;;;;3.03;0.70;;;;;;;;;;5011223;28;20030;-59
2023/03/06 13:47:30;;;;;;;2.10;0.57;;;;;;;;;;5013602;28;20049;-59
2023/03/06 13:49:57;;;;;;;3.57;0.70;;;;;;;;;;5007932;28;20042;-59
2023/03/06 13:52:49;;;;;;;2.60;0.60;;;;;;;;;;5012158;28;20081;-59
2023/03/06 13:55:18;;;;;;;2.73;0.40;;;;;;;;;;5017909;28;20054;-59
2023/03/06 13:58:05;;;;;;;3.33;0.33;;;;;;;;;;5019954;28;20102;-59
2023/03/06 14:00:38;;;;;;;1.47;0.40;;;;;;;;;;5018679;28;20087;-59
2023/03/06 14:03:31;;;;;;;3.60;0.50;;;;;;;;;;5017025;28;20133;-59
2023/03/06 14:05:57;;;;;;;1.30;0.40;;;;;;;;;;5015521;28;20129;-59
2023/03/06 14:08:29;;;;;;;1.80;0.40;;;;;;;;;;5017074;28;20071;-59
2023/03/06 14:11:00;;;;;;;1.67;0.50;;;;;;;;;;5012583;28;20076;-59
2023/03/06 14:13:28;;;;;;;3.80;0.83;;;;;;;;;;5017215;28;20048;-59
2023/03/06 14:15:55;;;;;;;3.10;0.70;;;;;;;;;;5018522;28;20663;-59
2023/03/06 14:18:22;;;;;;;1.90;0.53;;;;;;;;;;5017725;28;20046;-59
2023/03/06 14:20:51;;;;;;;1.27;0.50;;;;;;;;;;5022192;28;20355;-59
2023/03/06 14:23:20;;;;;;;1.07;0.40;;;;;;;;;;5018166;28;20049;-59
2023/03/06 14:25:47;;;;;;;2.00;0.40;;;;;;;;;;5016003;28;20091;-59
2023/03/06 14:28:24;;;;;;;2.30;0.40;;;;;;;;;;5012455;28;20141;-59
2023/03/06 14:30:51;;;;;;;1.47;0.63;;;;;;;;;;5017820;28;20402;-58
2023/03/06 14:33:26;;;;;;;5.40;0.80;;;;;;;;;;5023580;28;20461;-59
2023/03/06 14:35:52;;;;;;;1.07;0.50;;;;;;;;;;5019533;28;20049;-59
2023/03/06 14:38:18;;;;;;;3.90;0.53;;;;;;;;;;5018745;28;20049;-60
2023/03/06 14:40:44;;;;;;;2.93;0.50;;;;;;;;;;5010575;28;20056;-60
2023/03/06 14:43:11;;;;;;;1.83;0.60;;;;;;;;;;5014560;28;20465;-60
2023/03/06 14:45:46;;;;;;;2.77;0.80;;;;;;;;;;5016701;28;20137;-60